createdAt,value
2018-08-28T00:01:11.067Z,53.30
2018-08-28T00:11:15.675Z,53.30
2018-08-28T00:21:20.247Z,53.30
2018-08-28T00:31:24.797Z,53.30
2018-08-28T00:41:29.345Z,53.40
2018-08-28T00:51:33.891Z,53.40
2018-08-28T01:01:38.436Z,53.40
2018-08-28T01:11:42.988Z,53.40
2018-08-28T01:21:47.620Z,53.40
2018-08-28T01:31:52.151Z,53.40
2018-08-28T01:41:56.907Z,53.40
2018-08-28T01:52:01.445Z,53.40
2018-08-28T02:02:06.110Z,53.40
2018-08-28T02:12:10.655Z,53.50
2018-08-28T02:22:15.195Z,53.50
2018-08-28T02:32:19.789Z,53.50
2018-08-28T02:42:24.342Z,53.40
2018-08-28T02:52:28.903Z,53.50
2018-08-28T03:02:33.428Z,53.50
2018-08-28T03:12:37.973Z,53.50
2018-08-28T03:22:42.519Z,53.50
2018-08-28T03:32:47.051Z,53.50
2018-08-28T03:42:51.568Z,53.50
2018-08-28T03:52:56.272Z,53.60
2018-08-28T04:03:00.829Z,53.60
2018-08-28T04:13:05.436Z,53.60
2018-08-28T04:23:09.966Z,53.60
2018-08-28T04:33:14.520Z,53.60
2018-08-28T04:43:19.066Z,53.70
2018-08-28T04:53:23.611Z,53.60
2018-08-28T05:03:28.166Z,53.70
2018-08-28T05:13:33.577Z,53.60
2018-08-28T05:23:38.147Z,53.60
2018-08-28T05:33:42.662Z,53.60
2018-08-28T05:43:47.284Z,53.70
2018-08-28T05:53:51.837Z,53.70
2018-08-28T06:03:56.393Z,53.70
2018-08-28T06:14:00.977Z,53.80
2018-08-28T06:24:05.627Z,53.80
2018-08-28T06:34:10.197Z,53.80
2018-08-28T06:44:14.760Z,53.80
2018-08-28T06:54:19.355Z,53.80
2018-08-28T07:04:23.923Z,53.80
2018-08-28T07:14:28.471Z,53.80
2018-08-28T07:24:32.998Z,53.80
2018-08-28T07:34:37.582Z,53.80
2018-08-28T07:44:42.135Z,53.80
2018-08-28T07:54:46.656Z,53.80
2018-08-28T08:04:51.194Z,53.80
2018-08-28T08:14:55.733Z,53.80
2018-08-28T08:25:00.336Z,53.80
2018-08-28T08:35:04.884Z,53.80
2018-08-28T08:45:09.404Z,53.80
2018-08-28T08:55:13.955Z,53.90
2018-08-28T09:05:18.534Z,53.90
2018-08-28T09:15:23.148Z,53.90
2018-08-28T09:25:27.695Z,54.50
2018-08-28T09:35:32.216Z,53.90
2018-08-28T09:45:36.760Z,53.90
2018-08-28T09:55:41.303Z,53.90
2018-08-28T10:05:45.936Z,53.90
2018-08-28T10:15:50.458Z,53.90
2018-08-28T10:25:55.002Z,53.90
2018-08-28T10:35:59.568Z,53.90
2018-08-28T10:46:04.204Z,54.00
2018-08-28T10:56:08.736Z,53.90
2018-08-28T11:06:13.303Z,53.90
2018-08-28T11:16:17.929Z,53.90
2018-08-28T11:26:22.460Z,54.00
2018-08-28T11:36:27.067Z,54.00
2018-08-28T11:46:31.565Z,54.10
2018-08-28T11:56:36.330Z,54.10
2018-08-28T12:06:41.564Z,54.00
2018-08-28T12:16:46.059Z,54.10
2018-08-28T12:26:50.660Z,54.10
2018-08-28T12:36:55.221Z,54.20
2018-08-28T12:46:59.787Z,54.20
2018-08-28T12:57:04.348Z,54.20
2018-08-28T13:07:08.918Z,54.60
2018-08-28T13:17:13.457Z,54.20
2018-08-28T13:27:18.011Z,54.20
2018-08-28T13:37:22.540Z,54.20
2018-08-28T13:47:27.071Z,54.20
2018-08-28T13:57:31.601Z,54.30
2018-08-28T14:07:36.171Z,54.20
2018-08-28T14:17:40.757Z,54.20
2018-08-28T14:27:45.386Z,54.10
2018-08-28T14:37:49.943Z,54.10
2018-08-28T14:47:54.554Z,54.10
2018-08-28T14:57:59.162Z,54.00
2018-08-28T15:08:03.688Z,53.90
2018-08-28T15:18:08.274Z,53.90
2018-08-28T15:28:12.850Z,53.90
2018-08-28T15:38:17.413Z,53.90
2018-08-28T15:48:22.803Z,53.90
2018-08-28T15:58:27.373Z,53.90
2018-08-28T16:08:31.931Z,53.90
2018-08-28T16:18:36.556Z,53.90
2018-08-28T16:28:41.171Z,53.90
2018-08-28T16:38:46.711Z,54.50
2018-08-28T16:48:51.257Z,53.90
2018-08-28T16:58:55.834Z,53.80
2018-08-28T17:09:00.420Z,53.90
2018-08-28T17:19:04.989Z,53.90
2018-08-28T17:29:09.539Z,53.80
2018-08-28T17:39:14.085Z,53.80
2018-08-28T17:49:18.670Z,53.80
2018-08-28T17:59:23.224Z,53.90
2018-08-28T18:09:27.801Z,53.90
2018-08-28T18:19:32.336Z,53.90
2018-08-28T18:29:36.869Z,53.90
2018-08-28T18:39:41.416Z,53.90
2018-08-28T18:49:45.944Z,54.00
2018-08-28T18:59:50.477Z,54.00
2018-08-28T19:09:55.162Z,54.00
2018-08-28T19:19:59.715Z,54.10
2018-08-28T19:30:04.395Z,54.10
2018-08-28T19:40:09.015Z,54.00
2018-08-28T19:50:13.608Z,54.10
2018-08-28T20:00:18.207Z,54.10
2018-08-28T20:10:22.776Z,54.00
2018-08-28T20:20:27.334Z,54.00
2018-08-28T20:30:31.920Z,54.00
2018-08-28T20:40:36.461Z,54.00
2018-08-28T20:50:40.989Z,54.00
2018-08-28T21:00:45.583Z,54.00
2018-08-28T21:10:50.147Z,53.90
2018-08-28T21:20:54.684Z,53.90
2018-08-28T21:30:59.216Z,53.90
2018-08-28T21:41:03.781Z,53.90
2018-08-28T21:51:08.381Z,53.90
2018-08-28T22:01:13.396Z,53.90
2018-08-28T22:11:17.961Z,53.90
2018-08-28T22:21:22.615Z,53.90
2018-08-28T22:31:27.261Z,53.80
2018-08-28T22:41:31.793Z,53.90
2018-08-28T22:51:36.371Z,53.90
2018-08-28T23:01:40.907Z,53.80
2018-08-28T23:11:45.479Z,53.90
2018-08-28T23:21:50.048Z,53.90
2018-08-28T23:31:54.587Z,53.90
2018-08-28T23:41:59.119Z,53.80
2018-08-28T23:52:03.642Z,53.80
